createdAt,value
2024-04-09T00:00:17.970Z,44.60
2024-04-09T00:01:18.016Z,48.00
2024-04-09T00:02:17.922Z,55.00
2024-04-09T00:03:18.083Z,62.50
2024-04-09T00:04:18.005Z,53.30
2024-04-09T00:05:17.986Z,54.10
2024-04-09T00:06:17.942Z,47.80
2024-04-09T00:07:17.869Z,64.20
2024-04-09T00:08:18.074Z,52.70
2024-04-09T00:09:17.865Z,68.80
2024-04-09T00:10:17.881Z,56.70
2024-04-09T00:11:17.880Z,54.50
2024-04-09T00:12:17.829Z,58.00
2024-04-09T00:13:17.789Z,52.00
2024-04-09T00:14:17.778Z,41.30
2024-04-09T00:15:17.831Z,55.80
2024-04-09T00:16:17.768Z,54.10
2024-04-09T00:17:17.858Z,47.80
2024-04-09T00:18:17.866Z,54.60
2024-04-09T00:19:17.768Z,48.60
2024-04-09T00:20:17.739Z,51.10
2024-04-09T00:21:17.760Z,55.10
2024-04-09T00:22:17.715Z,52.10
2024-04-09T00:23:18.239Z,60.40
2024-04-09T00:24:17.792Z,53.60
2024-04-09T00:25:17.688Z,46.40
2024-04-09T00:26:17.658Z,55.40
2024-04-09T00:27:18.670Z,56.60
2024-04-09T00:28:17.641Z,53.00
2024-04-09T00:29:17.639Z,56.50
2024-04-09T00:30:17.736Z,64.00
2024-04-09T00:31:17.616Z,47.00
2024-04-09T00:32:17.612Z,57.50
2024-04-09T00:33:17.793Z,57.50
2024-04-09T00:34:17.704Z,53.50
2024-04-09T00:35:17.588Z,62.70
2024-04-09T00:36:17.661Z,41.80
2024-04-09T00:37:17.560Z,45.10
2024-04-09T00:38:17.544Z,58.70
2024-04-09T00:39:17.622Z,61.70
2024-04-09T00:40:17.518Z,54.40
2024-04-09T00:41:17.581Z,61.50
2024-04-09T00:42:17.537Z,53.10
2024-04-09T00:43:17.516Z,62.30
2024-04-09T00:44:17.514Z,55.10
2024-04-09T00:45:17.531Z,59.10
2024-04-09T00:46:17.495Z,54.90
2024-04-09T00:47:17.484Z,61.70
2024-04-09T00:48:17.677Z,53.30
2024-04-09T00:49:17.537Z,67.70
2024-04-09T00:50:17.425Z,65.30
2024-04-09T00:51:17.478Z,54.50
2024-04-09T00:52:17.397Z,61.90
2024-04-09T00:53:18.441Z,47.30
2024-04-09T00:54:17.433Z,52.70
2024-04-09T00:55:17.374Z,48.80
2024-04-09T00:56:17.394Z,58.20
2024-04-09T00:57:17.378Z,59.60
2024-04-09T00:58:17.363Z,60.60
2024-04-09T00:59:17.398Z,60.20
2024-04-09T01:00:17.459Z,66.00
2024-04-09T01:01:17.329Z,51.50
2024-04-09T01:02:17.376Z,64.40
2024-04-09T01:03:17.416Z,58.70
2024-04-09T01:04:17.382Z,63.60
2024-04-09T01:05:17.272Z,64.00
2024-04-09T01:06:17.320Z,68.00
2024-04-09T01:07:17.342Z,68.50
2024-04-09T01:08:17.264Z,62.70
2024-04-09T01:09:17.268Z,55.40
2024-04-09T01:10:17.222Z,61.40
2024-04-09T01:11:17.240Z,55.30
2024-04-09T01:12:17.251Z,72.20
2024-04-09T01:13:17.196Z,62.10
2024-04-09T01:14:17.180Z,61.00
2024-04-09T01:15:17.226Z,55.10
2024-04-09T01:16:17.164Z,57.30
2024-04-09T01:17:17.979Z,63.40
2024-04-09T01:18:50.744Z,62.60
2024-04-09T01:19:17.175Z,69.10
2024-04-09T01:20:17.126Z,59.70
2024-04-09T01:21:17.139Z,68.60
2024-04-09T01:22:17.121Z,53.90
2024-04-09T01:23:17.104Z,64.10
2024-04-09T01:24:18.149Z,52.50
2024-04-09T01:25:17.095Z,59.50
2024-04-09T01:26:17.081Z,53.10
2024-04-09T01:27:17.077Z,57.90
2024-04-09T01:28:17.057Z,51.50
2024-04-09T01:29:17.028Z,60.70
2024-04-09T01:30:17.033Z,69.10
2024-04-09T01:31:17.032Z,50.80
2024-04-09T01:32:17.133Z,66.60
2024-04-09T01:33:17.086Z,70.80
2024-04-09T01:34:17.135Z,49.80
2024-04-09T01:35:16.980Z,55.20
2024-04-09T01:36:17.024Z,51.10
2024-04-09T01:37:16.959Z,71.50
2024-04-09T01:38:16.946Z,49.20
2024-04-09T01:39:16.942Z,59.70
2024-04-09T01:40:16.925Z,53.70
2024-04-09T01:41:16.952Z,64.00
2024-04-09T01:42:17.028Z,61.20
2024-04-09T01:43:16.907Z,65.40
2024-04-09T01:44:16.889Z,45.80
2024-04-09T01:45:16.923Z,52.60
2024-04-09T01:46:16.888Z,62.60
2024-04-09T01:47:17.108Z,63.40
2024-04-09T01:48:16.973Z,58.90
2024-04-09T01:49:17.860Z,65.60
2024-04-09T01:50:16.846Z,52.30
2024-04-09T01:51:16.846Z,65.60
2024-04-09T01:52:16.815Z,54.40
2024-04-09T01:53:16.795Z,54.60
2024-04-09T01:54:16.813Z,50.70
2024-04-09T01:55:16.826Z,61.20
2024-04-09T01:56:17.778Z,65.90
2024-04-09T01:57:16.830Z,66.20
2024-04-09T01:58:16.746Z,53.00
2024-04-09T01:59:16.741Z,73.80
2024-04-09T02:00:16.781Z,54.80
2024-04-09T02:01:16.786Z,61.10
2024-04-09T02:02:16.762Z,76.00
2024-04-09T02:03:16.843Z,56.80
2024-04-09T02:04:16.741Z,50.80
2024-04-09T02:05:16.784Z,68.90
2024-04-09T02:06:16.748Z,76.10
2024-04-09T02:07:16.675Z,57.50
2024-04-09T02:08:16.653Z,70.10
2024-04-09T02:09:16.681Z,58.00
2024-04-09T02:10:16.637Z,66.80
2024-04-09T02:11:16.671Z,73.90
2024-04-09T02:12:16.617Z,70.60
2024-04-09T02:13:16.606Z,67.50
2024-04-09T02:14:16.602Z,60.70
2024-04-09T02:15:16.641Z,61.50
2024-04-09T02:16:16.612Z,54.80
2024-04-09T02:17:16.576Z,55.00
2024-04-09T02:18:16.800Z,70.70
2024-04-09T02:19:16.579Z,52.70
2024-04-09T02:20:16.533Z,57.50
2024-04-09T02:21:16.642Z,59.00
2024-04-09T02:22:16.515Z,69.20
2024-04-09T02:23:16.527Z,71.00
2024-04-09T02:24:16.600Z,67.70
2024-04-09T02:25:16.497Z,54.00
2024-04-09T02:26:16.501Z,49.60
2024-04-09T02:27:16.526Z,66.40
2024-04-09T02:28:16.467Z,61.40
2024-04-09T02:29:16.446Z,60.90
2024-04-09T02:30:16.510Z,72.10
2024-04-09T02:31:16.623Z,59.20
2024-04-09T02:32:16.534Z,59.60
2024-04-09T02:33:16.558Z,48.30
2024-04-09T02:34:16.391Z,65.90
2024-04-09T02:35:16.390Z,54.20
2024-04-09T02:36:16.431Z,64.70
2024-04-09T02:37:16.377Z,67.30
2024-04-09T02:38:16.386Z,67.00
2024-04-09T02:39:16.393Z,72.20
2024-04-09T02:40:17.184Z,65.70
2024-04-09T02:41:16.326Z,56.70
2024-04-09T02:42:16.386Z,72.40
2024-04-09T02:43:16.320Z,63.00
2024-04-09T02:44:16.308Z,67.30
2024-04-09T02:45:16.329Z,66.40
2024-04-09T02:46:16.280Z,51.10
2024-04-09T02:47:16.452Z,61.70
2024-04-09T02:48:16.370Z,62.50
2024-04-09T02:49:16.268Z,71.00
2024-04-09T02:50:16.236Z,60.10
2024-04-09T02:51:16.378Z,63.60
2024-04-09T02:52:16.242Z,54.80
2024-04-09T02:53:16.210Z,57.30
2024-04-09T02:54:16.204Z,59.90
2024-04-09T02:55:16.182Z,61.10
2024-04-09T02:56:16.185Z,54.70
2024-04-09T02:57:16.243Z,46.10
2024-04-09T02:58:16.181Z,58.50
2024-04-09T02:59:16.146Z,50.00
2024-04-09T03:00:16.205Z,46.80
2024-04-09T03:01:16.229Z,54.30
2024-04-09T03:02:16.181Z,53.10
2024-04-09T03:03:16.249Z,54.80
2024-04-09T03:04:16.156Z,52.00
2024-04-09T03:05:16.104Z,58.20
2024-04-09T03:06:16.143Z,48.80
2024-04-09T03:07:16.071Z,44.90
2024-04-09T03:08:16.062Z,44.00
2024-04-09T03:09:16.083Z,61.10
2024-04-09T03:10:16.095Z,54.50
2024-04-09T03:11:16.428Z,43.30
2024-04-09T03:12:16.094Z,55.10
2024-04-09T03:13:16.018Z,50.00
2024-04-09T03:14:15.994Z,44.70
2024-04-09T03:15:16.193Z,54.50
2024-04-09T03:16:16.030Z,45.40
2024-04-09T03:17:15.973Z,48.80
2024-04-09T03:18:16.073Z,50.20
2024-04-09T03:19:15.948Z,40.60
2024-04-09T03:20:15.950Z,54.50
2024-04-09T03:21:15.927Z,56.90
2024-04-09T03:22:15.911Z,59.20
2024-04-09T03:23:15.982Z,47.70
2024-04-09T03:24:16.033Z,55.70
2024-04-09T03:25:15.974Z,54.40
2024-04-09T03:26:15.927Z,51.50
2024-04-09T03:27:15.894Z,64.30
2024-04-09T03:28:15.864Z,64.40
2024-04-09T03:29:16.767Z,74.00
2024-04-09T03:30:15.935Z,68.20
2024-04-09T03:31:15.835Z,51.10
2024-04-09T03:32:15.829Z,55.90
2024-04-09T03:33:15.931Z,65.70
2024-04-09T03:34:15.900Z,55.00
2024-04-09T03:35:15.800Z,66.50
2024-04-09T03:36:15.881Z,68.40
2024-04-09T03:37:15.780Z,53.80
2024-04-09T03:38:15.772Z,69.00
2024-04-09T03:39:15.806Z,60.70
2024-04-09T03:40:15.748Z,64.50
2024-04-09T03:41:15.741Z,65.90
2024-04-09T03:42:15.753Z,52.50
2024-04-09T03:43:15.735Z,48.40
2024-04-09T03:44:15.704Z,59.80
2024-04-09T03:45:15.715Z,50.60
2024-04-09T03:46:16.684Z,50.20
2024-04-09T03:47:15.697Z,65.60
2024-04-09T03:48:15.822Z,53.30
2024-04-09T03:49:15.791Z,62.40
2024-04-09T03:50:15.642Z,59.00
2024-04-09T03:51:16.066Z,47.20
2024-04-09T03:52:15.633Z,61.40
2024-04-09T03:53:15.623Z,51.10
2024-04-09T03:54:15.684Z,50.00
2024-04-09T03:55:15.615Z,54.90
2024-04-09T03:56:15.596Z,64.30
2024-04-09T03:57:15.640Z,56.20
2024-04-09T03:58:15.564Z,52.80
2024-04-09T03:59:15.550Z,49.30
2024-04-09T04:00:15.560Z,61.50
2024-04-09T04:01:15.592Z,56.20
2024-04-09T04:02:15.611Z,59.70
2024-04-09T04:03:15.588Z,54.50
2024-04-09T04:04:15.621Z,70.20
2024-04-09T04:05:16.491Z,58.60
2024-04-09T04:06:15.530Z,57.60
2024-04-09T04:07:15.505Z,49.70
2024-04-09T04:08:15.462Z,52.50
2024-04-09T04:09:15.490Z,52.60
2024-04-09T04:10:15.447Z,52.50
2024-04-09T04:11:15.658Z,71.30
2024-04-09T04:12:15.463Z,65.30
2024-04-09T04:13:15.420Z,47.90
2024-04-09T04:14:15.414Z,50.70
2024-04-09T04:15:15.434Z,54.60
2024-04-09T04:16:15.414Z,70.00
2024-04-09T04:17:15.498Z,41.00
2024-04-09T04:18:15.448Z,56.30
2024-04-09T04:19:15.368Z,52.30
2024-04-09T04:20:15.375Z,42.90
2024-04-09T04:21:15.502Z,50.40
2024-04-09T04:22:15.324Z,61.30
2024-04-09T04:23:15.337Z,71.00
2024-04-09T04:24:15.343Z,49.90
2024-04-09T04:25:15.337Z,56.80
2024-04-09T04:26:15.294Z,47.00
2024-04-09T04:27:15.286Z,56.00
2024-04-09T04:28:15.274Z,55.10
2024-04-09T04:29:15.264Z,46.90
2024-04-09T04:30:15.298Z,50.80
2024-04-09T04:31:15.270Z,60.10
2024-04-09T04:32:15.285Z,56.60
2024-04-09T04:33:15.371Z,58.90
2024-04-09T04:34:15.277Z,51.10
2024-04-09T04:35:15.215Z,52.50
2024-04-09T04:36:16.786Z,50.80
2024-04-09T04:37:15.174Z,53.10
2024-04-09T04:38:15.182Z,61.60
2024-04-09T04:39:15.303Z,53.70
2024-04-09T04:40:15.188Z,49.70
2024-04-09T04:41:15.146Z,53.90
2024-04-09T04:42:15.151Z,52.20
2024-04-09T04:43:15.119Z,69.80
2024-04-09T04:44:15.140Z,50.30
2024-04-09T04:45:15.118Z,69.10
2024-04-09T04:46:15.084Z,67.50
2024-04-09T04:47:15.078Z,75.20
2024-04-09T04:48:15.362Z,64.40
2024-04-09T04:49:15.337Z,66.80
2024-04-09T04:50:15.043Z,56.80
2024-04-09T04:51:15.106Z,58.10
2024-04-09T04:52:15.065Z,52.00
2024-04-09T04:53:15.096Z,54.90
2024-04-09T04:54:15.020Z,69.50
2024-04-09T04:55:14.981Z,47.40
2024-04-09T04:56:14.985Z,53.40
2024-04-09T04:57:14.976Z,52.50
2024-04-09T04:58:15.001Z,77.60
2024-04-09T04:59:14.966Z,68.80
2024-04-09T05:00:14.984Z,73.60
2024-04-09T05:01:15.033Z,63.20
2024-04-09T05:02:14.963Z,61.50
2024-04-09T05:03:15.118Z,62.60
2024-04-09T05:04:15.052Z,61.70
2024-04-09T05:05:14.902Z,75.20
2024-04-09T05:06:14.960Z,60.70
2024-04-09T05:07:14.943Z,72.60
2024-04-09T05:08:14.974Z,68.50
2024-04-09T05:09:15.002Z,66.10
2024-04-09T05:10:14.853Z,63.20
2024-04-09T05:11:15.027Z,55.50
2024-04-09T05:12:15.043Z,65.70
2024-04-09T05:13:14.810Z,53.70
2024-04-09T05:14:14.803Z,71.30
2024-04-09T05:15:14.933Z,69.70
2024-04-09T05:16:14.778Z,64.80
2024-04-09T05:17:14.790Z,57.70
2024-04-09T05:18:14.952Z,58.90
2024-04-09T05:19:14.837Z,52.90
2024-04-09T05:20:14.733Z,66.90
2024-04-09T05:21:14.763Z,58.90
2024-04-09T05:22:14.732Z,63.80
2024-04-09T05:23:14.726Z,67.00
2024-04-09T05:24:14.827Z,70.90
2024-04-09T05:25:14.697Z,67.60
2024-04-09T05:26:14.689Z,69.70
2024-04-09T05:27:14.970Z,46.10
2024-04-09T05:28:14.657Z,49.20
2024-04-09T05:29:14.650Z,66.00
2024-04-09T05:30:14.741Z,61.40
2024-04-09T05:31:14.644Z,51.90
2024-04-09T05:32:14.674Z,68.90
2024-04-09T05:33:14.639Z,72.80
2024-04-09T05:34:14.733Z,69.60
2024-04-09T05:35:14.590Z,73.30
2024-04-09T05:36:14.630Z,67.20
2024-04-09T05:37:14.572Z,68.70
2024-04-09T05:38:14.576Z,59.00
2024-04-09T05:39:14.597Z,61.60
2024-04-09T05:40:14.548Z,73.80
2024-04-09T05:41:14.544Z,59.70
2024-04-09T05:42:14.577Z,52.40
2024-04-09T05:43:14.507Z,47.70
2024-04-09T05:44:14.507Z,59.90
2024-04-09T05:45:14.687Z,48.20
2024-04-09T05:46:14.493Z,71.70
2024-04-09T05:47:14.670Z,61.40
2024-04-09T05:48:14.559Z,69.90
2024-04-09T05:49:14.577Z,75.90
2024-04-09T05:50:14.457Z,56.20
2024-04-09T05:51:14.516Z,56.60
2024-04-09T05:52:14.420Z,57.50
2024-04-09T05:53:14.412Z,71.10
2024-04-09T05:54:14.417Z,62.50
2024-04-09T05:55:14.423Z,51.80
2024-04-09T05:56:14.382Z,73.60
2024-04-09T05:57:14.394Z,65.00
2024-04-09T05:58:14.362Z,53.00
2024-04-09T05:59:14.362Z,66.80
2024-04-09T06:00:14.532Z,49.30
2024-04-09T06:01:14.381Z,43.20
2024-04-09T06:02:14.352Z,54.90
2024-04-09T06:03:14.396Z,58.10
2024-04-09T06:04:16.733Z,49.00
2024-04-09T06:05:15.321Z,50.40
2024-04-09T06:06:14.328Z,66.70
2024-04-09T06:07:14.275Z,55.00
2024-04-09T06:08:15.264Z,54.80
2024-04-09T06:09:14.288Z,67.90
2024-04-09T06:10:14.464Z,49.30
2024-04-09T06:11:14.251Z,38.40
2024-04-09T06:12:14.316Z,46.60
2024-04-09T06:13:14.220Z,48.80
2024-04-09T06:14:14.212Z,41.00
2024-04-09T06:15:14.311Z,62.10
2024-04-09T06:16:14.179Z,48.30
2024-04-09T06:17:14.233Z,50.10
2024-04-09T06:18:14.440Z,55.90
2024-04-09T06:19:15.893Z,41.80
2024-04-09T06:20:14.171Z,45.90
2024-04-09T06:21:14.204Z,54.30
2024-04-09T06:22:14.124Z,45.10
2024-04-09T06:23:14.139Z,49.30
2024-04-09T06:24:14.146Z,50.80
2024-04-09T06:25:14.093Z,46.20
2024-04-09T06:26:14.089Z,51.10
2024-04-09T06:27:14.082Z,43.90
2024-04-09T06:28:14.076Z,52.70
2024-04-09T06:29:14.068Z,43.80
2024-04-09T06:30:14.050Z,51.30
2024-04-09T06:31:14.034Z,59.90
2024-04-09T06:32:14.099Z,47.10
2024-04-09T06:33:16.104Z,48.20
2024-04-09T06:34:15.079Z,40.00
2024-04-09T06:35:13.991Z,54.40
2024-04-09T06:36:24.903Z,43.60
2024-04-09T06:37:16.040Z,49.50
2024-04-09T06:38:13.993Z,42.10
2024-04-09T06:39:13.984Z,41.90
2024-04-09T06:40:13.936Z,46.90
2024-04-09T06:41:13.929Z,45.90
2024-04-09T06:42:13.960Z,49.40
2024-04-09T06:43:13.925Z,35.50
2024-04-09T06:44:13.983Z,37.80
2024-04-09T06:45:13.968Z,34.40
2024-04-09T06:46:13.901Z,34.60
2024-04-09T06:47:13.903Z,34.40
2024-04-09T06:48:14.166Z,34.90
2024-04-09T06:49:13.983Z,28.90
2024-04-09T06:50:13.859Z,34.30
2024-04-09T06:51:13.898Z,34.80
2024-04-09T06:52:13.847Z,40.10
2024-04-09T06:53:13.819Z,24.60
2024-04-09T06:54:15.522Z,27.30
2024-04-09T06:55:13.805Z,29.20
2024-04-09T06:56:13.809Z,34.50
2024-04-09T06:57:13.810Z,39.50
2024-04-09T06:58:13.779Z,38.60
2024-04-09T06:59:13.783Z,33.60
2024-04-09T07:00:13.768Z,30.80
2024-04-09T07:01:13.801Z,30.60
2024-04-09T07:02:13.825Z,33.20
2024-04-09T07:03:13.766Z,41.00
2024-04-09T07:04:13.902Z,31.60
2024-04-09T07:05:13.709Z,30.70
2024-04-09T07:06:13.763Z,31.20
2024-04-09T07:07:13.683Z,27.70
2024-04-09T07:08:13.675Z,40.80
2024-04-09T07:09:13.741Z,36.10
2024-04-09T07:10:13.654Z,34.50
2024-04-09T07:11:13.716Z,31.60
2024-04-09T07:12:13.658Z,34.80
2024-04-09T07:13:13.624Z,31.00
2024-04-09T07:14:13.614Z,27.60
2024-04-09T07:15:13.624Z,32.70
2024-04-09T07:16:13.612Z,33.50
2024-04-09T07:17:14.706Z,36.10
2024-04-09T07:18:47.113Z,34.70
2024-04-09T07:19:13.572Z,35.10
2024-04-09T07:20:13.570Z,35.10
2024-04-09T07:21:13.573Z,24.30
2024-04-09T07:22:13.541Z,23.50
2024-04-09T07:23:13.726Z,37.20
2024-04-09T07:24:14.539Z,39.60
2024-04-09T07:25:13.508Z,28.10
2024-04-09T07:26:13.492Z,32.10
2024-04-09T07:27:13.503Z,32.00
2024-04-09T07:28:13.479Z,34.10
2024-04-09T07:29:14.674Z,33.90
2024-04-09T07:30:13.501Z,38.50
2024-04-09T07:31:13.472Z,30.90
2024-04-09T07:32:13.454Z,27.80
2024-04-09T07:33:13.490Z,26.00
2024-04-09T07:34:13.428Z,26.00
2024-04-09T07:35:13.406Z,36.30
2024-04-09T07:36:13.404Z,30.00
2024-04-09T07:37:13.395Z,24.40
2024-04-09T07:38:13.396Z,25.30
2024-04-09T07:39:13.430Z,27.80
2024-04-09T07:40:13.359Z,25.80
2024-04-09T07:41:13.355Z,27.50
2024-04-09T07:42:13.346Z,39.10
2024-04-09T07:43:13.380Z,35.60
2024-04-09T07:44:13.334Z,36.20
2024-04-09T07:45:13.327Z,39.20
2024-04-09T07:46:13.298Z,28.50
2024-04-09T07:47:13.340Z,22.30
2024-04-09T07:48:13.488Z,26.90
2024-04-09T07:49:13.481Z,31.30
2024-04-09T07:50:13.274Z,36.70
2024-04-09T07:51:13.275Z,32.20
2024-04-09T07:52:13.237Z,35.90
2024-04-09T07:53:13.263Z,19.60
2024-04-09T07:54:13.289Z,21.60
2024-04-09T07:55:13.204Z,22.90
2024-04-09T07:56:13.198Z,28.00
2024-04-09T07:57:13.216Z,36.00
2024-04-09T07:58:13.211Z,29.80
2024-04-09T07:59:13.167Z,29.80
2024-04-09T08:00:13.178Z,28.90
2024-04-09T08:01:13.221Z,21.90
2024-04-09T08:02:13.375Z,24.10
2024-04-09T08:03:13.259Z,22.60
2024-04-09T08:04:13.302Z,22.30
2024-04-09T08:05:13.328Z,27.80
2024-04-09T08:06:13.214Z,21.00
2024-04-09T08:07:13.292Z,25.10
2024-04-09T08:08:13.237Z,21.40
2024-04-09T08:09:13.150Z,20.70
2024-04-09T08:10:13.546Z,17.20
2024-04-09T08:11:13.284Z,19.30
2024-04-09T08:12:13.966Z,25.80
2024-04-09T08:13:13.225Z,24.90
2024-04-09T08:14:13.037Z,19.20
2024-04-09T08:15:13.045Z,26.10
2024-04-09T08:16:13.008Z,29.60
2024-04-09T08:17:13.039Z,30.40
2024-04-09T08:18:13.155Z,13.80
2024-04-09T08:19:13.241Z,18.40
2024-04-09T08:20:13.090Z,26.00
2024-04-09T08:21:13.043Z,29.40
2024-04-09T08:22:12.959Z,19.60
2024-04-09T08:23:12.940Z,24.40
2024-04-09T08:24:12.961Z,18.30
2024-04-09T08:25:13.917Z,19.80
2024-04-09T08:26:12.926Z,15.80
2024-04-09T08:27:12.935Z,22.00
2024-04-09T08:28:12.890Z,19.30
2024-04-09T08:29:12.893Z,20.80
2024-04-09T08:30:12.896Z,23.40
2024-04-09T08:31:13.019Z,21.90
2024-04-09T08:32:12.903Z,22.60
2024-04-09T08:33:12.922Z,29.40
2024-04-09T08:34:16.752Z,19.10
2024-04-09T08:35:13.900Z,24.30
2024-04-09T08:36:12.945Z,15.30
2024-04-09T08:37:12.989Z,24.80
2024-04-09T08:38:12.805Z,23.90
2024-04-09T08:39:12.891Z,12.90
2024-04-09T08:40:12.969Z,19.10
2024-04-09T08:41:12.784Z,23.70
2024-04-09T08:42:12.818Z,17.60
2024-04-09T08:43:12.865Z,14.40
2024-04-09T08:44:12.740Z,21.80
2024-04-09T08:45:12.778Z,17.40
2024-04-09T08:46:12.950Z,20.50
2024-04-09T08:47:12.799Z,21.00
2024-04-09T08:48:13.007Z,17.30
2024-04-09T08:49:12.865Z,19.90
2024-04-09T08:50:13.030Z,21.90
2024-04-09T08:51:13.688Z,18.10
2024-04-09T08:52:12.842Z,22.40
2024-04-09T08:53:12.682Z,21.10
2024-04-09T08:54:12.705Z,17.50
2024-04-09T08:55:12.647Z,21.80
2024-04-09T08:56:12.653Z,20.30
2024-04-09T08:57:12.631Z,21.10
2024-04-09T08:58:12.619Z,20.30
2024-04-09T08:59:12.614Z,20.70
2024-04-09T09:00:12.636Z,20.80
2024-04-09T09:01:12.680Z,25.20
2024-04-09T09:02:12.567Z,19.70
2024-04-09T09:03:12.679Z,22.10
2024-04-09T09:04:12.710Z,13.40
2024-04-09T09:05:12.639Z,16.00
2024-04-09T09:06:12.599Z,22.80
2024-04-09T09:07:12.527Z,16.60
2024-04-09T09:08:12.540Z,20.40
2024-04-09T09:09:12.585Z,17.30
2024-04-09T09:10:12.499Z,13.30
2024-04-09T09:11:12.546Z,14.40
2024-04-09T09:12:12.530Z,12.10
2024-04-09T09:13:12.467Z,17.40
2024-04-09T09:14:12.455Z,18.90
2024-04-09T09:15:12.460Z,14.80
2024-04-09T09:16:12.522Z,15.00
2024-04-09T09:17:12.487Z,13.00
2024-04-09T09:18:12.567Z,10.90
2024-04-09T09:19:12.597Z,15.20
2024-04-09T09:20:12.411Z,8.90
2024-04-09T09:21:12.456Z,9.90
2024-04-09T09:22:12.403Z,9.40
2024-04-09T09:23:12.382Z,11.40
2024-04-09T09:24:12.439Z,18.10
2024-04-09T09:25:12.748Z,12.20
2024-04-09T09:26:13.337Z,12.80
2024-04-09T09:27:13.366Z,14.70
2024-04-09T09:28:12.338Z,12.80
2024-04-09T09:29:12.315Z,16.40
2024-04-09T09:30:12.433Z,9.30
2024-04-09T09:31:12.296Z,16.10
2024-04-09T09:32:12.396Z,13.00
2024-04-09T09:33:12.463Z,10.90
2024-04-09T09:34:12.340Z,16.20
2024-04-09T09:35:12.258Z,15.20
2024-04-09T09:36:12.303Z,10.00
2024-04-09T09:37:12.260Z,14.00
2024-04-09T09:38:12.244Z,14.70
2024-04-09T09:39:12.261Z,11.60
2024-04-09T09:40:12.228Z,15.10
2024-04-09T09:41:12.248Z,14.80
2024-04-09T09:42:12.316Z,14.90
2024-04-09T09:43:12.188Z,11.80
2024-04-09T09:44:12.175Z,11.90
2024-04-09T09:45:12.178Z,12.00
2024-04-09T09:46:12.172Z,15.50
2024-04-09T09:47:12.177Z,15.50
2024-04-09T09:48:12.223Z,11.80
2024-04-09T09:49:13.997Z,17.30
2024-04-09T09:50:17.244Z,11.50
2024-04-09T09:51:14.186Z,14.10
2024-04-09T09:52:12.111Z,13.30
2024-04-09T09:53:12.735Z,9.90
2024-04-09T09:54:12.125Z,12.60
2024-04-09T09:55:12.114Z,12.50
2024-04-09T09:56:12.072Z,16.10
2024-04-09T09:57:12.083Z,11.80
2024-04-09T09:58:12.060Z,9.60
2024-04-09T09:59:12.053Z,17.40
2024-04-09T10:00:12.112Z,14.70
2024-04-09T10:01:12.286Z,13.50
2024-04-09T10:02:12.006Z,17.90
2024-04-09T10:03:12.019Z,13.50
2024-04-09T10:04:12.147Z,10.70
2024-04-09T10:05:12.032Z,14.30
2024-04-09T10:06:12.040Z,15.00
2024-04-09T10:07:11.957Z,7.40
2024-04-09T10:08:11.947Z,8.70
2024-04-09T10:09:11.991Z,13.70
2024-04-09T10:10:11.960Z,11.50
2024-04-09T10:11:11.927Z,7.90
2024-04-09T10:12:13.427Z,13.40
2024-04-09T10:13:12.908Z,7.40
2024-04-09T10:14:11.896Z,7.10
2024-04-09T10:15:11.895Z,8.00
2024-04-09T10:16:11.866Z,11.00
2024-04-09T10:17:11.875Z,8.60
2024-04-09T10:18:12.021Z,9.30
2024-04-09T10:19:12.920Z,6.40
2024-04-09T10:20:11.854Z,7.20
2024-04-09T10:21:11.907Z,6.80
2024-04-09T10:22:11.804Z,7.00
2024-04-09T10:23:12.249Z,5.70
2024-04-09T10:24:11.836Z,5.50
2024-04-09T10:25:11.778Z,10.70
2024-04-09T10:26:11.781Z,3.50
2024-04-09T10:27:11.782Z,6.40
2024-04-09T10:28:11.817Z,7.10
2024-04-09T10:29:11.756Z,10.50
2024-04-09T10:30:11.758Z,6.40
2024-04-09T10:31:11.776Z,6.90
2024-04-09T10:32:11.711Z,6.80
2024-04-09T10:33:11.870Z,5.70
2024-04-09T10:34:11.782Z,6.40
2024-04-09T10:35:11.690Z,9.80
2024-04-09T10:36:11.689Z,8.40
2024-04-09T10:37:11.660Z,5.70
2024-04-09T10:38:11.663Z,7.10
2024-04-09T10:39:11.663Z,3.80
2024-04-09T10:40:11.656Z,7.10
2024-04-09T10:41:11.627Z,6.80
2024-04-09T10:42:11.667Z,3.90
2024-04-09T10:43:11.648Z,3.90
2024-04-09T10:44:11.590Z,6.90
2024-04-09T10:45:11.638Z,2.60
2024-04-09T10:46:14.945Z,7.20
2024-04-09T10:47:11.667Z,3.70
2024-04-09T10:48:11.611Z,2.80
2024-04-09T10:49:11.615Z,5.90
2024-04-09T10:50:11.557Z,4.00
2024-04-09T10:51:11.625Z,10.40
2024-04-09T10:52:11.525Z,6.20
2024-04-09T10:53:11.516Z,3.20
2024-04-09T10:54:11.516Z,10.10
2024-04-09T10:55:11.507Z,4.90
2024-04-09T10:56:11.499Z,6.70
2024-04-09T10:57:11.498Z,4.90
2024-04-09T10:58:11.467Z,5.30
2024-04-09T10:59:11.440Z,3.90
2024-04-09T11:00:11.462Z,6.50
2024-04-09T11:01:11.561Z,3.90
2024-04-09T11:02:11.442Z,4.10
2024-04-09T11:03:11.474Z,6.20
2024-04-09T11:04:11.505Z,3.10
2024-04-09T11:05:11.423Z,8.50
2024-04-09T11:06:11.400Z,5.50
2024-04-09T11:07:11.382Z,4.90
2024-04-09T11:08:11.557Z,5.30
2024-04-09T11:09:11.564Z,4.10
2024-04-09T11:10:11.456Z,4.70
2024-04-09T11:11:11.378Z,2.40
2024-04-09T11:12:11.338Z,2.30
2024-04-09T11:13:11.306Z,2.10
2024-04-09T11:14:11.296Z,2.10
2024-04-09T11:15:11.327Z,5.00
2024-04-09T11:16:11.279Z,3.10
2024-04-09T11:17:11.359Z,2.50
2024-04-09T11:18:11.379Z,1.70
2024-04-09T11:19:11.285Z,2.60
2024-04-09T11:20:11.308Z,3.10
2024-04-09T11:21:11.249Z,1.20
2024-04-09T11:22:11.233Z,1.50
2024-04-09T11:23:11.210Z,1.00
2024-04-09T11:24:11.244Z,1.30
2024-04-09T11:25:11.207Z,1.40
2024-04-09T11:26:11.202Z,2.60
2024-04-09T11:27:11.241Z,4.20
2024-04-09T11:28:11.160Z,0.70
2024-04-09T11:29:11.159Z,1.10
2024-04-09T11:30:11.184Z,1.30
2024-04-09T11:31:11.131Z,3.50
2024-04-09T11:32:11.128Z,0.80
2024-04-09T11:33:11.226Z,0.80
2024-04-09T11:34:11.212Z,0.60
2024-04-09T11:35:11.099Z,1.40
2024-04-09T11:36:17.421Z,2.60
2024-04-09T11:37:12.097Z,2.10
2024-04-09T11:38:11.085Z,2.00
2024-04-09T11:39:11.114Z,3.30
2024-04-09T11:40:11.033Z,2.50
2024-04-09T11:41:11.029Z,2.20
2024-04-09T11:42:11.064Z,2.40
2024-04-09T11:43:13.297Z,7.00
2024-04-09T11:44:12.002Z,1.60
2024-04-09T11:45:11.036Z,1.40
2024-04-09T11:46:10.971Z,3.30
2024-04-09T11:47:11.003Z,3.90
2024-04-09T11:48:11.264Z,1.00
2024-04-09T11:49:11.070Z,0.70
2024-04-09T11:50:10.933Z,4.70
2024-04-09T11:51:11.002Z,1.90
2024-04-09T11:52:10.907Z,2.60
2024-04-09T11:53:11.204Z,2.60
2024-04-09T11:54:10.947Z,2.00
2024-04-09T11:55:11.673Z,1.40
2024-04-09T11:56:11.869Z,3.10
2024-04-09T11:57:10.917Z,1.50
2024-04-09T11:58:10.857Z,3.60
2024-04-09T11:59:10.853Z,7.50
2024-04-09T12:00:10.900Z,9.90
2024-04-09T12:01:11.040Z,2.40
2024-04-09T12:02:10.824Z,0.80
2024-04-09T12:03:10.990Z,2.30
2024-04-09T12:04:11.004Z,3.20
2024-04-09T12:05:10.837Z,1.70
2024-04-09T12:06:10.905Z,5.30
2024-04-09T12:07:10.784Z,2.50
2024-04-09T12:08:10.745Z,5.50
2024-04-09T12:09:10.755Z,5.30
2024-04-09T12:10:10.726Z,1.70
2024-04-09T12:11:10.771Z,1.40
2024-04-09T12:12:10.738Z,3.60
2024-04-09T12:13:10.714Z,1.50
2024-04-09T12:14:10.688Z,3.70
2024-04-09T12:15:10.770Z,3.40
2024-04-09T12:16:10.674Z,3.40
2024-04-09T12:17:10.667Z,5.80
2024-04-09T12:18:10.780Z,1.70
2024-04-09T12:19:10.774Z,4.00
2024-04-09T12:20:10.618Z,1.90
2024-04-09T12:21:10.671Z,2.20
2024-04-09T12:22:10.617Z,6.10
2024-04-09T12:23:10.589Z,2.30
2024-04-09T12:24:10.635Z,2.40
2024-04-09T12:25:10.600Z,2.80
2024-04-09T12:26:10.599Z,2.10
2024-04-09T12:27:10.585Z,4.70
2024-04-09T12:28:10.532Z,4.40
2024-04-09T12:29:10.564Z,4.80
2024-04-09T12:30:10.613Z,3.50
2024-04-09T12:31:10.521Z,4.60
2024-04-09T12:32:10.500Z,4.20
2024-04-09T12:33:10.738Z,5.70
2024-04-09T12:34:10.613Z,2.80
2024-04-09T12:35:10.895Z,3.40
2024-04-09T12:36:10.512Z,6.30
2024-04-09T12:37:10.456Z,3.80
2024-04-09T12:38:10.439Z,1.20
2024-04-09T12:39:10.488Z,1.40
2024-04-09T12:40:10.443Z,3.00
2024-04-09T12:41:10.406Z,3.00
2024-04-09T12:42:10.409Z,2.70
2024-04-09T12:43:10.386Z,2.90
2024-04-09T12:44:10.496Z,3.80
2024-04-09T12:45:10.424Z,3.00
2024-04-09T12:46:10.359Z,2.80
2024-04-09T12:47:10.394Z,4.60
2024-04-09T12:48:10.454Z,4.20
2024-04-09T12:49:23.480Z,2.30
2024-04-09T12:50:11.449Z,4.00
2024-04-09T12:51:10.366Z,2.20
2024-04-09T12:52:10.300Z,7.70
2024-04-09T12:53:10.292Z,4.90
2024-04-09T12:54:10.315Z,2.50
2024-04-09T12:55:10.285Z,7.90
2024-04-09T12:56:10.259Z,3.30
2024-04-09T12:57:10.418Z,3.10
2024-04-09T12:58:10.261Z,5.70